Historyczne dane pomiarowe

Dodano dane terminowe – wersja testowa.

Dane z okresu 1951-2019

Wersja bazy: 1.34 [2019-03-16, lista zmian], aktualizacja planowana na 2019-04-15

Dane meteo z obszaru Polski uzyskane na podstawie danych udostępnionych przez Instytut Meteorologii i Gospodarki Wodnej – Państwowy Instytut Badawczy.

 

Wybierz Datę:    

       

TemperaturaWilgotnośćWiatrCiśnienieOpadyŚniegCzas trwania zjawisk
 Stacja t tx tn tng RH VA  wxwx mslp ppp RRR   cm mm wxwxwxwxwxwxwx
1987-08-14 10.8 14.2 6.0- 89.0- 8.0 2.3---- 0.8------------
1987-08-13 10.3 16.0 3.0- 79.0- 4.0 3.0---- 0.0------------
1987-08-12 10.7 14.3 6.0- 84.3- 4.0 0.7---- 0.5------------
1987-08-11 11.5 16.2 8.1- 84.0- 5.7 1.3---- 0.4------------
1987-08-10 14.0 17.0 11.0- 83.8- 6.7 5.0---- 2.7------------
1987-08-09 13.4 19.6 7.0- 71.3- 2.7 2.3---- 0.0------------
1987-08-08 12.8 17.2 6.1- 69.8- 0.0 1.0---- 0.0------------
1987-08-07 9.0 11.4 2.3- 73.5- 2.0 0.3---- 0.0------------
1987-08-06 8.4 12.2 4.1- 86.3- 5.3 2.7---- 0.4------------
1987-08-05 9.5 12.4 5.6- 88.5- 8.0 0.3---- 3.4------------
1987-08-04 13.2 15.0 11.4- 89.0- 8.0 4.3---- 3.3------------
1987-08-03 12.7 15.8 9.2- 79.8- 4.0 1.7---- 0.0------------
1987-08-02 12.2 15.0 8.8- 78.3- 5.7 2.7---- 9.2------------
1987-08-01 11.7 16.2 5.2- 85.0- 8.0 3.3---- 3.9------------
1987-07-31 14.0 17.1 11.4- 83.5- 8.0 0.0---- 1.7------------
1987-07-30 15.5 20.1 11.0- 74.3- 4.7 3.7---- 1.2------------
1987-07-29 13.7 16.5 10.0- 77.5- 3.7 0.3---- 0.0------------
1987-07-28 12.0 14.0 9.2- 90.8- 7.3 2.0---- 4.8------------
1987-07-27 9.9 12.5 6.0- 83.8- 6.0 5.0---- 6.4------------
1987-07-26 12.3 18.0 9.2- 88.8- 6.0 1.0---- 3.5------------
1987-07-25 17.3 21.2 14.2- 80.0- 5.7 0.0---- 2.0------------
1987-07-24 18.9 24.0 14.7- 79.3- 4.3 0.0---- 13.6------------
1987-07-23 19.8 25.6 16.3- 76.8- 0.3 0.3---- 14.6------------
1987-07-22 17.6 22.0 13.4- 75.0- 4.3 0.3---- 0.0------------
1987-07-21 19.2 23.6 14.0- 80.8- 1.7 1.3---- 0.0------------
1987-07-20 19.1 24.0 16.3- 82.8- 2.7 4.0---- 0.0------------
1987-07-19 23.1 27.4 18.9- 77.0- 0.3 2.7---- 3.1------------
1987-07-18 22.9 27.4 18.3- 71.0- 0.3 2.3---- 0.0------------
1987-07-17 22.0 26.5 16.9- 69.8- 3.0 1.3---- 0.0------------
1987-07-16 20.3 26.0 14.5- 76.3- 4.0 0.3---- 0.0------------
1987-07-15 16.6 22.3 10.5- 72.8- 0.0 0.3---- 0.0------------
1987-07-14 15.7 20.0 9.4- 70.3- 0.0 1.0---- 0.0------------
1987-07-13 18.0 22.0 14.0- 79.8- 4.3 0.7---- 0.0------------
1987-07-12 19.5 24.0 16.2- 65.0- 4.0 7.0---- 5.6------------
1987-07-11 15.0 20.3 5.6- 68.0- 0.0 2.0---- 0.0------------
1987-07-10 13.3 18.0 6.6- 73.0- 3.3 2.3---- 0.0------------
1987-07-09 15.8 22.1 13.2- 85.0- 8.0 0.0---- 4.5------------
1987-07-08 20.2 25.4 10.6- 60.8- 0.3 3.0---- 0.0------------
1987-07-07 18.3 24.0 10.5- 62.3- 0.0 0.7---- 0.0------------
1987-07-06 15.5 21.0 8.0- 71.5- 0.0 0.7---- 0.0------------
1987-07-05 14.7 19.0 12.1- 85.8- 2.3 1.3---- 0.0------------
1987-07-04 18.8 22.5 15.3- 78.0- 0.0 0.0---- 0.0------------
1987-07-03 17.7 20.8 14.0- 82.3- 8.0 1.3---- 0.0------------
1987-07-02 18.0 23.5 13.9- 89.5- 8.0 1.7---- 0.0------------
1987-07-01 22.2 27.2 15.3- 68.0- 0.0 1.0---- 0.0------------
1987-06-30 21.8 26.5 13.8- 73.5- 0.0 0.0---- 0.0------------
1987-06-29 20.0 24.4 16.1- 86.0- 2.3 0.7---- 0.0------------
1987-06-28 17.8 23.1 13.4- 76.5- 0.3 0.3---- 0.0------------
1987-06-27 16.1 19.0 13.4- 87.8- 8.0 0.3---- 1.2------------
1987-06-26 15.4 21.3 9.0- 68.8- 5.7 1.0---- 32.1------------
1987-06-25 13.2 16.5 10.0- 84.3- 3.7 4.3---- 0.0------------
1987-06-24 13.0 17.5 10.8- 76.0- 4.7 4.3---- 12.6------------
1987-06-23 14.5 18.4 9.9- 76.8- 5.3 1.3---- 0.0------------
1987-06-22 13.6 17.4 10.4- 90.5- 8.0 0.0---- 0.0------------
1987-06-21 14.6 18.4 10.0- 88.8- 4.3 1.7---- 0.7------------
1987-06-20 13.4 17.0 9.4- 80.8- 5.7 1.7---- 0.1------------
1987-06-19 9.9 15.5 6.0- 81.3- 4.0 2.0---- 0.0------------
1987-06-18 7.9 12.4 6.2- 87.5- 6.7 4.0---- 6.4------------
1987-06-17 8.8 14.0 4.4- 85.0- 3.7 2.7---- 0.6------------
1987-06-16 12.2 19.0 8.0- 90.0- 8.0 4.0---- 9.6------------
1646.5 ms

 

Źródłem pochodzenia danych jest Instytut Meteorologii i Gospodarki Wodnej – Państwowy Instytut Badawczy. Dane Instytutu Meteorologii i Gospodarki Wodnej – Państwowego Instytutu Badawczego zostały przetworzone.

Dane źródłowe można odnaleźć na stronie https://dane.imgw.pl